sensor_id;sensor_type;location;lat;lon;timestamp;P1;durP1;ratioP1;P2;durP2;ratioP2
34489;SDS011;20730;49.372;7.324;2023-04-25T00:02:16;16.08;;;11.75;;
34489;SDS011;20730;49.372;7.324;2023-04-25T00:04:44;14.45;;;10.40;;
34489;SDS011;20730;49.372;7.324;2023-04-25T00:07:11;15.15;;;10.65;;
34489;SDS011;20730;49.372;7.324;2023-04-25T00:09:38;14.05;;;9.90;;
34489;SDS011;20730;49.372;7.324;2023-04-25T00:12:05;12.45;;;9.85;;
34489;SDS011;20730;49.372;7.324;2023-04-25T00:14:32;12.70;;;9.32;;
34489;SDS011;20730;49.372;7.324;2023-04-25T00:17:00;13.38;;;9.32;;
34489;SDS011;20730;49.372;7.324;2023-04-25T00:19:27;10.95;;;8.57;;
34489;SDS011;20730;49.372;7.324;2023-04-25T00:21:55;11.10;;;7.60;;
34489;SDS011;20730;49.372;7.324;2023-04-25T00:24:21;11.63;;;8.20;;
34489;SDS011;20730;49.372;7.324;2023-04-25T00:26:48;10.00;;;7.85;;
34489;SDS011;20730;49.372;7.324;2023-04-25T00:29:15;9.85;;;7.75;;
34489;SDS011;20730;49.372;7.324;2023-04-25T00:31:42;11.00;;;8.02;;
34489;SDS011;20730;49.372;7.324;2023-04-25T00:34:09;10.45;;;7.25;;
34489;SDS011;20730;49.372;7.324;2023-04-25T00:36:35;9.05;;;7.25;;
34489;SDS011;20730;49.372;7.324;2023-04-25T00:39:02;9.85;;;7.70;;
34489;SDS011;20730;49.372;7.324;2023-04-25T00:41:30;9.10;;;7.50;;
34489;SDS011;20730;49.372;7.324;2023-04-25T00:43:57;8.65;;;7.32;;
34489;SDS011;20730;49.372;7.324;2023-04-25T00:46:24;9.63;;;7.22;;
34489;SDS011;20730;49.372;7.324;2023-04-25T00:48:50;10.90;;;7.55;;
34489;SDS011;20730;49.372;7.324;2023-04-25T00:51:19;9.20;;;7.10;;
34489;SDS011;20730;49.372;7.324;2023-04-25T00:53:47;9.90;;;7.55;;
34489;SDS011;20730;49.372;7.324;2023-04-25T00:56:16;11.13;;;7.60;;
34489;SDS011;20730;49.372;7.324;2023-04-25T00:58:42;9.07;;;6.97;;
34489;SDS011;20730;49.372;7.324;2023-04-25T01:01:10;10.80;;;7.82;;
34489;SDS011;20730;49.372;7.324;2023-04-25T01:03:37;11.10;;;7.65;;
34489;SDS011;20730;49.372;7.324;2023-04-25T01:06:07;10.65;;;8.20;;
34489;SDS011;20730;49.372;7.324;2023-04-25T01:08:36;10.50;;;8.20;;
34489;SDS011;20730;49.372;7.324;2023-04-25T01:11:04;13.77;;;8.45;;
34489;SDS011;20730;49.372;7.324;2023-04-25T01:13:32;11.23;;;8.48;;
34489;SDS011;20730;49.372;7.324;2023-04-25T01:15:59;11.05;;;7.88;;
34489;SDS011;20730;49.372;7.324;2023-04-25T01:18:26;10.85;;;7.85;;
34489;SDS011;20730;49.372;7.324;2023-04-25T01:20:53;12.32;;;8.90;;
34489;SDS011;20730;49.372;7.324;2023-04-25T01:23:21;10.88;;;8.23;;
34489;SDS011;20730;49.372;7.324;2023-04-25T01:25:49;11.70;;;8.57;;
34489;SDS011;20730;49.372;7.324;2023-04-25T01:28:16;13.18;;;9.13;;
34489;SDS011;20730;49.372;7.324;2023-04-25T01:30:43;11.93;;;9.05;;
34489;SDS011;20730;49.372;7.324;2023-04-25T01:33:09;13.52;;;9.23;;
34489;SDS011;20730;49.372;7.324;2023-04-25T01:35:37;13.82;;;9.57;;
34489;SDS011;20730;49.372;7.324;2023-04-25T01:38:04;15.32;;;9.80;;
34489;SDS011;20730;49.372;7.324;2023-04-25T01:40:32;14.68;;;9.25;;
34489;SDS011;20730;49.372;7.324;2023-04-25T01:42:59;11.90;;;9.30;;
34489;SDS011;20730;49.372;7.324;2023-04-25T01:45:26;11.75;;;9.55;;
34489;SDS011;20730;49.372;7.324;2023-04-25T01:47:53;12.52;;;9.75;;
34489;SDS011;20730;49.372;7.324;2023-04-25T01:50:20;13.73;;;9.68;;
34489;SDS011;20730;49.372;7.324;2023-04-25T01:52:47;15.05;;;10.50;;
34489;SDS011;20730;49.372;7.324;2023-04-25T01:55:14;13.57;;;9.90;;
34489;SDS011;20730;49.372;7.324;2023-04-25T01:57:51;12.15;;;9.65;;
34489;SDS011;20730;49.372;7.324;2023-04-25T02:00:23;11.68;;;8.65;;
34489;SDS011;20730;49.372;7.324;2023-04-25T02:02:50;12.77;;;9.35;;
34489;SDS011;20730;49.372;7.324;2023-04-25T02:05:34;14.02;;;9.60;;
34489;SDS011;20730;49.372;7.324;2023-04-25T02:08:09;14.73;;;9.75;;
34489;SDS011;20730;49.372;7.324;2023-04-25T02:10:37;15.15;;;10.05;;
34489;SDS011;20730;49.372;7.324;2023-04-25T02:13:33;14.38;;;9.15;;
34489;SDS011;20730;49.372;7.324;2023-04-25T02:16:14;12.70;;;9.52;;
34489;SDS011;20730;49.372;7.324;2023-04-25T02:18:41;13.10;;;9.93;;
34489;SDS011;20730;49.372;7.324;2023-04-25T02:21:08;13.65;;;9.65;;
34489;SDS011;20730;49.372;7.324;2023-04-25T02:23:35;14.02;;;9.05;;
34489;SDS011;20730;49.372;7.324;2023-04-25T02:26:02;15.65;;;9.63;;
34489;SDS011;20730;49.372;7.324;2023-04-25T02:28:29;13.45;;;10.00;;
34489;SDS011;20730;49.372;7.324;2023-04-25T02:30:56;13.13;;;9.63;;
34489;SDS011;20730;49.372;7.324;2023-04-25T02:33:23;15.27;;;10.23;;
34489;SDS011;20730;49.372;7.324;2023-04-25T02:35:50;14.00;;;10.40;;
34489;SDS011;20730;49.372;7.324;2023-04-25T02:40:47;13.25;;;9.68;;
34489;SDS011;20730;49.372;7.324;2023-04-25T02:43:14;15.38;;;10.25;;
34489;SDS011;20730;49.372;7.324;2023-04-25T02:45:42;14.00;;;10.10;;
34489;SDS011;20730;49.372;7.324;2023-04-25T02:48:08;14.90;;;10.77;;
34489;SDS011;20730;49.372;7.324;2023-04-25T02:50:35;13.95;;;10.65;;
34489;SDS011;20730;49.372;7.324;2023-04-25T02:53:02;15.63;;;11.50;;
34489;SDS011;20730;49.372;7.324;2023-04-25T02:55:35;14.98;;;11.18;;
34489;SDS011;20730;49.372;7.324;2023-04-25T02:58:03;14.90;;;11.07;;
34489;SDS011;20730;49.372;7.324;2023-04-25T03:00:40;14.90;;;11.00;;
34489;SDS011;20730;49.372;7.324;2023-04-25T03:03:07;16.70;;;11.30;;
34489;SDS011;20730;49.372;7.324;2023-04-25T03:05:34;15.70;;;11.48;;
34489;SDS011;20730;49.372;7.324;2023-04-25T03:08:01;16.67;;;11.48;;
34489;SDS011;20730;49.372;7.324;2023-04-25T03:10:30;17.02;;;10.95;;
34489;SDS011;20730;49.372;7.324;2023-04-25T03:13:01;17.83;;;11.15;;
34489;SDS011;20730;49.372;7.324;2023-04-25T03:15:28;17.35;;;12.45;;
34489;SDS011;20730;49.372;7.324;2023-04-25T03:17:54;18.60;;;12.30;;
34489;SDS011;20730;49.372;7.324;2023-04-25T03:20:22;18.85;;;12.55;;
34489;SDS011;20730;49.372;7.324;2023-04-25T03:22:49;19.70;;;12.27;;
34489;SDS011;20730;49.372;7.324;2023-04-25T03:25:17;16.52;;;11.52;;
34489;SDS011;20730;49.372;7.324;2023-04-25T03:27:44;18.20;;;12.00;;
34489;SDS011;20730;49.372;7.324;2023-04-25T03:30:11;22.05;;;12.00;;
34489;SDS011;20730;49.372;7.324;2023-04-25T03:32:40;17.88;;;12.20;;
34489;SDS011;20730;49.372;7.324;2023-04-25T03:35:07;17.58;;;12.23;;
34489;SDS011;20730;49.372;7.324;2023-04-25T03:37:34;17.30;;;12.07;;
34489;SDS011;20730;49.372;7.324;2023-04-25T03:40:01;18.13;;;13.18;;
34489;SDS011;20730;49.372;7.324;2023-04-25T03:42:48;20.45;;;12.50;;
34489;SDS011;20730;49.372;7.324;2023-04-25T03:45:17;20.17;;;13.50;;
34489;SDS011;20730;49.372;7.324;2023-04-25T03:47:44;21.60;;;13.35;;
34489;SDS011;20730;49.372;7.324;2023-04-25T03:50:11;20.20;;;13.68;;
34489;SDS011;20730;49.372;7.324;2023-04-25T03:52:38;20.98;;;14.40;;
34489;SDS011;20730;49.372;7.324;2023-04-25T03:55:04;20.77;;;14.20;;
34489;SDS011;20730;49.372;7.324;2023-04-25T03:57:31;19.75;;;13.27;;
34489;SDS011;20730;49.372;7.324;2023-04-25T03:59:58;19.52;;;13.48;;
34489;SDS011;20730;49.372;7.324;2023-04-25T04:02:27;18.48;;;12.45;;
34489;SDS011;20730;49.372;7.324;2023-04-25T04:04:54;16.38;;;11.70;;
34489;SDS011;20730;49.372;7.324;2023-04-25T04:07:23;18.23;;;12.40;;
34489;SDS011;20730;49.372;7.324;2023-04-25T04:09:53;19.80;;;12.55;;
34489;SDS011;20730;49.372;7.324;2023-04-25T04:12:26;18.90;;;13.05;;
34489;SDS011;20730;49.372;7.324;2023-04-25T04:14:52;20.55;;;14.43;;
34489;SDS011;20730;49.372;7.324;2023-04-25T04:17:19;23.60;;;14.40;;
34489;SDS011;20730;49.372;7.324;2023-04-25T04:19:47;21.02;;;13.23;;
34489;SDS011;20730;49.372;7.324;2023-04-25T04:22:17;20.88;;;14.77;;
34489;SDS011;20730;49.372;7.324;2023-04-25T04:24:45;22.00;;;14.63;;
34489;SDS011;20730;49.372;7.324;2023-04-25T04:27:18;22.85;;;13.93;;
34489;SDS011;20730;49.372;7.324;2023-04-25T04:30:15;22.70;;;14.43;;
34489;SDS011;20730;49.372;7.324;2023-04-25T04:32:56;24.80;;;15.75;;
34489;SDS011;20730;49.372;7.324;2023-04-25T04:35:24;19.42;;;13.65;;
34489;SDS011;20730;49.372;7.324;2023-04-25T04:37:51;24.65;;;14.13;;
34489;SDS011;20730;49.372;7.324;2023-04-25T04:40:19;21.30;;;13.95;;
34489;SDS011;20730;49.372;7.324;2023-04-25T04:43:05;20.95;;;14.02;;
34489;SDS011;20730;49.372;7.324;2023-04-25T04:45:52;24.15;;;16.23;;
34489;SDS011;20730;49.372;7.324;2023-04-25T04:48:53;21.88;;;14.30;;
34489;SDS011;20730;49.372;7.324;2023-04-25T04:51:49;26.20;;;15.77;;
34489;SDS011;20730;49.372;7.324;2023-04-25T04:54:35;27.27;;;16.33;;
34489;SDS011;20730;49.372;7.324;2023-04-25T04:57:21;26.05;;;16.17;;
34489;SDS011;20730;49.372;7.324;2023-04-25T05:00:01;27.05;;;16.80;;
34489;SDS011;20730;49.372;7.324;2023-04-25T05:03:05;26.83;;;16.45;;
34489;SDS011;20730;49.372;7.324;2023-04-25T05:05:56;24.58;;;15.93;;
34489;SDS011;20730;49.372;7.324;2023-04-25T05:08:49;23.27;;;15.68;;
34489;SDS011;20730;49.372;7.324;2023-04-25T05:11:39;24.33;;;15.85;;
34489;SDS011;20730;49.372;7.324;2023-04-25T05:14:22;22.58;;;15.60;;
34489;SDS011;20730;49.372;7.324;2023-04-25T05:17:26;25.98;;;15.95;;
34489;SDS011;20730;49.372;7.324;2023-04-25T05:19:56;26.23;;;17.38;;
34489;SDS011;20730;49.372;7.324;2023-04-25T05:22:33;28.15;;;18.73;;
34489;SDS011;20730;49.372;7.324;2023-04-25T05:25:17;24.48;;;16.02;;
34489;SDS011;20730;49.372;7.324;2023-04-25T05:28:03;23.90;;;15.85;;
34489;SDS011;20730;49.372;7.324;2023-04-25T05:30:51;22.38;;;14.88;;
34489;SDS011;20730;49.372;7.324;2023-04-25T05:33:25;21.73;;;14.88;;
34489;SDS011;20730;49.372;7.324;2023-04-25T05:35:52;20.98;;;15.02;;
34489;SDS011;20730;49.372;7.324;2023-04-25T05:38:19;22.27;;;15.73;;
34489;SDS011;20730;49.372;7.324;2023-04-25T05:41:05;22.20;;;14.55;;
34489;SDS011;20730;49.372;7.324;2023-04-25T05:43:39;19.55;;;14.15;;
34489;SDS011;20730;49.372;7.324;2023-04-25T05:46:24;21.20;;;14.23;;
34489;SDS011;20730;49.372;7.324;2023-04-25T05:49:04;21.90;;;14.20;;
34489;SDS011;20730;49.372;7.324;2023-04-25T05:51:41;20.30;;;14.05;;
34489;SDS011;20730;49.372;7.324;2023-04-25T05:54:32;19.08;;;13.55;;
34489;SDS011;20730;49.372;7.324;2023-04-25T05:56:59;21.40;;;14.23;;
34489;SDS011;20730;49.372;7.324;2023-04-25T05:59:26;17.52;;;13.30;;
34489;SDS011;20730;49.372;7.324;2023-04-25T06:01:52;16.70;;;12.75;;
34489;SDS011;20730;49.372;7.324;2023-04-25T06:04:20;18.55;;;13.30;;
34489;SDS011;20730;49.372;7.324;2023-04-25T06:06:47;20.17;;;13.88;;
34489;SDS011;20730;49.372;7.324;2023-04-25T06:09:14;19.35;;;13.48;;
34489;SDS011;20730;49.372;7.324;2023-04-25T06:11:41;18.85;;;13.50;;
34489;SDS011;20730;49.372;7.324;2023-04-25T06:14:08;19.75;;;13.88;;
34489;SDS011;20730;49.372;7.324;2023-04-25T06:16:38;21.00;;;13.52;;
34489;SDS011;20730;49.372;7.324;2023-04-25T06:19:06;23.17;;;15.65;;
34489;SDS011;20730;49.372;7.324;2023-04-25T06:21:33;26.17;;;17.92;;
34489;SDS011;20730;49.372;7.324;2023-04-25T06:23:59;24.75;;;16.55;;
34489;SDS011;20730;49.372;7.324;2023-04-25T06:26:28;21.27;;;14.90;;
34489;SDS011;20730;49.372;7.324;2023-04-25T06:28:54;22.88;;;14.95;;
34489;SDS011;20730;49.372;7.324;2023-04-25T06:31:21;20.98;;;14.20;;
34489;SDS011;20730;49.372;7.324;2023-04-25T06:33:49;22.20;;;14.40;;
34489;SDS011;20730;49.372;7.324;2023-04-25T06:36:17;21.88;;;14.30;;
34489;SDS011;20730;49.372;7.324;2023-04-25T06:38:47;20.13;;;14.25;;
34489;SDS011;20730;49.372;7.324;2023-04-25T06:41:14;23.17;;;15.20;;
34489;SDS011;20730;49.372;7.324;2023-04-25T06:43:41;20.65;;;15.13;;
34489;SDS011;20730;49.372;7.324;2023-04-25T06:46:24;19.63;;;14.50;;
34489;SDS011;20730;49.372;7.324;2023-04-25T06:48:51;23.35;;;14.98;;
34489;SDS011;20730;49.372;7.324;2023-04-25T06:51:18;22.63;;;15.45;;
34489;SDS011;20730;49.372;7.324;2023-04-25T06:53:49;17.67;;;13.18;;
34489;SDS011;20730;49.372;7.324;2023-04-25T06:56:24;20.35;;;14.30;;
34489;SDS011;20730;49.372;7.324;2023-04-25T06:58:59;19.60;;;14.20;;
34489;SDS011;20730;49.372;7.324;2023-04-25T07:01:38;20.23;;;15.00;;
34489;SDS011;20730;49.372;7.324;2023-04-25T07:04:09;17.15;;;12.85;;
34489;SDS011;20730;49.372;7.324;2023-04-25T07:06:42;15.90;;;11.88;;
34489;SDS011;20730;49.372;7.324;2023-04-25T07:09:10;15.85;;;11.85;;
34489;SDS011;20730;49.372;7.324;2023-04-25T07:11:38;14.40;;;11.35;;
34489;SDS011;20730;49.372;7.324;2023-04-25T07:14:05;14.13;;;10.45;;
34489;SDS011;20730;49.372;7.324;2023-04-25T07:16:32;10.55;;;6.45;;
34489;SDS011;20730;49.372;7.324;2023-04-25T07:19:01;6.47;;;4.80;;
34489;SDS011;20730;49.372;7.324;2023-04-25T07:21:28;3.83;;;3.22;;
34489;SDS011;20730;49.372;7.324;2023-04-25T07:23:55;2.30;;;1.88;;
34489;SDS011;20730;49.372;7.324;2023-04-25T07:26:27;2.35;;;2.10;;
34489;SDS011;20730;49.372;7.324;2023-04-25T07:29:20;1.92;;;1.73;;
34489;SDS011;20730;49.372;7.324;2023-04-25T07:31:47;2.00;;;1.80;;
34489;SDS011;20730;49.372;7.324;2023-04-25T07:34:14;2.17;;;1.98;;
34489;SDS011;20730;49.372;7.324;2023-04-25T07:36:43;2.67;;;1.92;;
34489;SDS011;20730;49.372;7.324;2023-04-25T07:39:09;3.58;;;2.65;;
34489;SDS011;20730;49.372;7.324;2023-04-25T07:41:37;2.08;;;1.70;;
34489;SDS011;20730;49.372;7.324;2023-04-25T07:44:05;1.75;;;1.65;;
34489;SDS011;20730;49.372;7.324;2023-04-25T07:46:34;3.28;;;2.85;;
34489;SDS011;20730;49.372;7.324;2023-04-25T07:49:02;5.18;;;2.95;;
34489;SDS011;20730;49.372;7.324;2023-04-25T07:51:28;4.07;;;2.47;;
34489;SDS011;20730;49.372;7.324;2023-04-25T07:53:59;2.95;;;2.38;;
34489;SDS011;20730;49.372;7.324;2023-04-25T07:56:27;4.22;;;3.05;;
34489;SDS011;20730;49.372;7.324;2023-04-25T07:59:04;3.92;;;3.17;;
34489;SDS011;20730;49.372;7.324;2023-04-25T08:01:31;4.13;;;2.45;;
34489;SDS011;20730;49.372;7.324;2023-04-25T08:04:01;3.95;;;2.72;;
34489;SDS011;20730;49.372;7.324;2023-04-25T08:06:45;3.47;;;2.80;;
34489;SDS011;20730;49.372;7.324;2023-04-25T08:09:17;3.47;;;2.67;;
34489;SDS011;20730;49.372;7.324;2023-04-25T08:11:45;2.80;;;2.50;;
34489;SDS011;20730;49.372;7.324;2023-04-25T08:14:15;2.92;;;2.15;;
34489;SDS011;20730;49.372;7.324;2023-04-25T08:16:43;2.05;;;1.65;;
34489;SDS011;20730;49.372;7.324;2023-04-25T08:19:10;1.92;;;1.70;;
34489;SDS011;20730;49.372;7.324;2023-04-25T08:21:37;3.40;;;2.55;;
34489;SDS011;20730;49.372;7.324;2023-04-25T08:24:09;4.30;;;3.13;;
34489;SDS011;20730;49.372;7.324;2023-04-25T08:26:37;5.10;;;3.08;;
34489;SDS011;20730;49.372;7.324;2023-04-25T08:29:06;5.13;;;3.72;;
34489;SDS011;20730;49.372;7.324;2023-04-25T08:31:37;8.07;;;4.90;;
34489;SDS011;20730;49.372;7.324;2023-04-25T08:34:05;8.48;;;5.30;;
34489;SDS011;20730;49.372;7.324;2023-04-25T08:36:36;8.63;;;5.65;;
34489;SDS011;20730;49.372;7.324;2023-04-25T08:39:26;8.35;;;5.28;;
34489;SDS011;20730;49.372;7.324;2023-04-25T08:42:11;8.90;;;6.70;;
34489;SDS011;20730;49.372;7.324;2023-04-25T08:44:38;9.05;;;6.45;;
34489;SDS011;20730;49.372;7.324;2023-04-25T08:47:05;11.98;;;7.05;;
34489;SDS011;20730;49.372;7.324;2023-04-25T08:49:39;11.25;;;6.85;;
34489;SDS011;20730;49.372;7.324;2023-04-25T08:52:11;8.98;;;6.53;;
34489;SDS011;20730;49.372;7.324;2023-04-25T08:54:43;9.77;;;6.72;;
34489;SDS011;20730;49.372;7.324;2023-04-25T08:57:16;12.40;;;7.55;;
34489;SDS011;20730;49.372;7.324;2023-04-25T08:59:45;13.30;;;7.53;;
34489;SDS011;20730;49.372;7.324;2023-04-25T09:02:14;10.30;;;7.45;;
34489;SDS011;20730;49.372;7.324;2023-04-25T09:04:46;13.77;;;7.63;;
34489;SDS011;20730;49.372;7.324;2023-04-25T09:07:14;12.52;;;7.72;;
34489;SDS011;20730;49.372;7.324;2023-04-25T09:09:44;12.88;;;8.70;;
34489;SDS011;20730;49.372;7.324;2023-04-25T09:12:12;15.50;;;9.15;;
34489;SDS011;20730;49.372;7.324;2023-04-25T09:14:39;11.73;;;7.93;;
34489;SDS011;20730;49.372;7.324;2023-04-25T09:17:24;14.68;;;8.50;;
34489;SDS011;20730;49.372;7.324;2023-04-25T09:19:53;15.68;;;8.55;;
34489;SDS011;20730;49.372;7.324;2023-04-25T09:22:25;14.55;;;8.70;;
34489;SDS011;20730;49.372;7.324;2023-04-25T09:24:52;14.15;;;7.90;;
34489;SDS011;20730;49.372;7.324;2023-04-25T09:27:22;14.00;;;8.20;;
34489;SDS011;20730;49.372;7.324;2023-04-25T09:29:58;11.88;;;8.52;;
34489;SDS011;20730;49.372;7.324;2023-04-25T09:32:43;13.65;;;8.35;;
34489;SDS011;20730;49.372;7.324;2023-04-25T09:35:10;18.63;;;8.75;;
34489;SDS011;20730;49.372;7.324;2023-04-25T09:37:40;16.33;;;8.07;;
34489;SDS011;20730;49.372;7.324;2023-04-25T09:40:38;17.77;;;8.43;;
34489;SDS011;20730;49.372;7.324;2023-04-25T09:43:19;18.73;;;6.90;;
34489;SDS011;20730;49.372;7.324;2023-04-25T09:45:49;15.45;;;7.90;;
34489;SDS011;20730;49.372;7.324;2023-04-25T09:48:18;16.13;;;9.20;;
34489;SDS011;20730;49.372;7.324;2023-04-25T09:51:11;13.52;;;8.30;;
34489;SDS011;20730;49.372;7.324;2023-04-25T09:53:45;13.93;;;8.02;;
34489;SDS011;20730;49.372;7.324;2023-04-25T09:56:29;13.55;;;8.30;;
34489;SDS011;20730;49.372;7.324;2023-04-25T09:58:58;9.82;;;5.78;;
34489;SDS011;20730;49.372;7.324;2023-04-25T10:01:26;11.43;;;6.95;;
34489;SDS011;20730;49.372;7.324;2023-04-25T10:04:07;9.40;;;6.30;;
34489;SDS011;20730;49.372;7.324;2023-04-25T10:06:44;10.07;;;5.43;;
34489;SDS011;20730;49.372;7.324;2023-04-25T10:09:14;11.13;;;6.32;;
34489;SDS011;20730;49.372;7.324;2023-04-25T10:11:42;13.07;;;6.45;;
34489;SDS011;20730;49.372;7.324;2023-04-25T10:14:09;8.57;;;5.68;;
34489;SDS011;20730;49.372;7.324;2023-04-25T10:16:37;10.15;;;6.70;;
34489;SDS011;20730;49.372;7.324;2023-04-25T10:19:04;11.32;;;5.20;;
34489;SDS011;20730;49.372;7.324;2023-04-25T10:21:31;8.68;;;5.60;;
34489;SDS011;20730;49.372;7.324;2023-04-25T10:23:59;9.80;;;4.72;;
34489;SDS011;20730;49.372;7.324;2023-04-25T10:26:27;10.48;;;5.40;;
34489;SDS011;20730;49.372;7.324;2023-04-25T10:29:03;7.32;;;4.05;;
34489;SDS011;20730;49.372;7.324;2023-04-25T10:31:30;7.93;;;4.40;;
34489;SDS011;20730;49.372;7.324;2023-04-25T10:33:57;6.18;;;3.60;;
34489;SDS011;20730;49.372;7.324;2023-04-25T10:36:26;6.43;;;5.05;;
34489;SDS011;20730;49.372;7.324;2023-04-25T10:38:58;7.15;;;4.65;;
34489;SDS011;20730;49.372;7.324;2023-04-25T10:41:45;9.82;;;4.97;;
34489;SDS011;20730;49.372;7.324;2023-04-25T10:44:13;8.10;;;4.72;;
34489;SDS011;20730;49.372;7.324;2023-04-25T10:46:40;11.40;;;5.22;;
34489;SDS011;20730;49.372;7.324;2023-04-25T10:49:06;12.10;;;7.22;;
34489;SDS011;20730;49.372;7.324;2023-04-25T10:51:34;8.02;;;5.70;;
34489;SDS011;20730;49.372;7.324;2023-04-25T10:54:20;7.72;;;5.57;;
34489;SDS011;20730;49.372;7.324;2023-04-25T10:56:48;10.90;;;5.05;;
34489;SDS011;20730;49.372;7.324;2023-04-25T10:59:18;10.70;;;4.97;;
34489;SDS011;20730;49.372;7.324;2023-04-25T11:01:46;8.02;;;5.00;;
34489;SDS011;20730;49.372;7.324;2023-04-25T11:06:55;10.13;;;4.70;;
34489;SDS011;20730;49.372;7.324;2023-04-25T11:09:33;8.73;;;4.50;;
34489;SDS011;20730;49.372;7.324;2023-04-25T11:12:02;7.90;;;4.03;;
34489;SDS011;20730;49.372;7.324;2023-04-25T11:14:28;7.90;;;5.07;;
34489;SDS011;20730;49.372;7.324;2023-04-25T11:16:56;4.97;;;3.95;;
34489;SDS011;20730;49.372;7.324;2023-04-25T11:19:26;10.77;;;5.30;;
34489;SDS011;20730;49.372;7.324;2023-04-25T11:21:57;7.53;;;4.70;;
34489;SDS011;20730;49.372;7.324;2023-04-25T11:24:29;7.07;;;4.75;;
34489;SDS011;20730;49.372;7.324;2023-04-25T11:27:00;8.30;;;4.60;;
34489;SDS011;20730;49.372;7.324;2023-04-25T11:29:32;10.98;;;4.85;;
34489;SDS011;20730;49.372;7.324;2023-04-25T11:31:59;5.32;;;3.67;;
34489;SDS011;20730;49.372;7.324;2023-04-25T11:34:28;7.18;;;4.07;;
34489;SDS011;20730;49.372;7.324;2023-04-25T11:36:59;8.85;;;4.30;;
34489;SDS011;20730;49.372;7.324;2023-04-25T11:39:28;8.68;;;4.38;;
34489;SDS011;20730;49.372;7.324;2023-04-25T11:41:55;6.13;;;3.85;;
34489;SDS011;20730;49.372;7.324;2023-04-25T11:44:22;8.18;;;4.13;;
34489;SDS011;20730;49.372;7.324;2023-04-25T11:46:49;6.97;;;3.95;;
34489;SDS011;20730;49.372;7.324;2023-04-25T11:49:15;5.88;;;3.58;;
34489;SDS011;20730;49.372;7.324;2023-04-25T11:51:45;7.55;;;3.45;;
34489;SDS011;20730;49.372;7.324;2023-04-25T11:54:13;6.80;;;4.25;;
34489;SDS011;20730;49.372;7.324;2023-04-25T11:56:43;8.55;;;3.78;;
34489;SDS011;20730;49.372;7.324;2023-04-25T11:59:10;5.68;;;3.80;;
34489;SDS011;20730;49.372;7.324;2023-04-25T12:01:39;6.10;;;4.18;;
34489;SDS011;20730;49.372;7.324;2023-04-25T12:06:49;4.05;;;2.83;;
34489;SDS011;20730;49.372;7.324;2023-04-25T12:09:18;3.97;;;3.20;;
34489;SDS011;20730;49.372;7.324;2023-04-25T12:11:54;6.20;;;3.10;;
34489;SDS011;20730;49.372;7.324;2023-04-25T12:14:22;7.82;;;3.65;;
34489;SDS011;20730;49.372;7.324;2023-04-25T12:16:57;4.28;;;2.95;;
34489;SDS011;20730;49.372;7.324;2023-04-25T12:19:25;4.25;;;3.15;;
34489;SDS011;20730;49.372;7.324;2023-04-25T12:21:52;11.02;;;4.18;;
34489;SDS011;20730;49.372;7.324;2023-04-25T12:24:25;7.75;;;3.38;;
34489;SDS011;20730;49.372;7.324;2023-04-25T12:27:00;8.23;;;3.17;;
34489;SDS011;20730;49.372;7.324;2023-04-25T12:29:32;8.25;;;3.20;;
34489;SDS011;20730;49.372;7.324;2023-04-25T12:32:15;6.40;;;3.47;;
34489;SDS011;20730;49.372;7.324;2023-04-25T12:34:43;5.68;;;3.08;;
34489;SDS011;20730;49.372;7.324;2023-04-25T12:37:09;5.60;;;3.25;;
34489;SDS011;20730;49.372;7.324;2023-04-25T12:39:37;5.90;;;3.10;;
34489;SDS011;20730;49.372;7.324;2023-04-25T12:42:03;9.23;;;3.33;;
34489;SDS011;20730;49.372;7.324;2023-04-25T12:44:34;9.52;;;3.25;;
34489;SDS011;20730;49.372;7.324;2023-04-25T12:47:01;4.95;;;2.67;;
34489;SDS011;20730;49.372;7.324;2023-04-25T12:49:29;6.45;;;2.88;;
34489;SDS011;20730;49.372;7.324;2023-04-25T12:51:56;6.97;;;2.80;;
34489;SDS011;20730;49.372;7.324;2023-04-25T12:54:23;6.30;;;2.75;;
34489;SDS011;20730;49.372;7.324;2023-04-25T12:56:49;7.57;;;2.85;;
34489;SDS011;20730;49.372;7.324;2023-04-25T12:59:17;5.43;;;2.72;;
34489;SDS011;20730;49.372;7.324;2023-04-25T13:01:44;4.80;;;2.58;;
34489;SDS011;20730;49.372;7.324;2023-04-25T13:04:11;6.78;;;2.80;;
34489;SDS011;20730;49.372;7.324;2023-04-25T13:06:38;4.97;;;2.78;;
34489;SDS011;20730;49.372;7.324;2023-04-25T13:09:05;4.05;;;2.30;;
34489;SDS011;20730;49.372;7.324;2023-04-25T13:11:33;7.95;;;2.50;;
34489;SDS011;20730;49.372;7.324;2023-04-25T13:14:00;3.95;;;2.78;;
34489;SDS011;20730;49.372;7.324;2023-04-25T13:16:27;6.13;;;3.00;;
34489;SDS011;20730;49.372;7.324;2023-04-25T13:18:53;6.22;;;2.95;;
34489;SDS011;20730;49.372;7.324;2023-04-25T13:21:22;3.80;;;2.40;;
34489;SDS011;20730;49.372;7.324;2023-04-25T13:23:49;4.80;;;2.78;;
34489;SDS011;20730;49.372;7.324;2023-04-25T13:26:16;4.38;;;2.85;;
34489;SDS011;20730;49.372;7.324;2023-04-25T13:28:43;5.43;;;2.40;;
34489;SDS011;20730;49.372;7.324;2023-04-25T13:31:11;8.35;;;2.53;;
34489;SDS011;20730;49.372;7.324;2023-04-25T13:33:38;8.27;;;2.33;;
34489;SDS011;20730;49.372;7.324;2023-04-25T13:36:04;5.30;;;2.72;;
34489;SDS011;20730;49.372;7.324;2023-04-25T13:38:32;10.00;;;2.75;;
34489;SDS011;20730;49.372;7.324;2023-04-25T13:40:59;9.63;;;3.30;;
34489;SDS011;20730;49.372;7.324;2023-04-25T13:43:27;6.50;;;2.63;;
34489;SDS011;20730;49.372;7.324;2023-04-25T13:45:53;10.68;;;2.55;;
34489;SDS011;20730;49.372;7.324;2023-04-25T13:48:20;7.88;;;3.08;;
34489;SDS011;20730;49.372;7.324;2023-04-25T13:50:48;7.65;;;2.70;;
34489;SDS011;20730;49.372;7.324;2023-04-25T13:53:15;6.93;;;2.75;;
34489;SDS011;20730;49.372;7.324;2023-04-25T13:55:42;7.45;;;3.72;;
34489;SDS011;20730;49.372;7.324;2023-04-25T13:58:08;7.55;;;2.58;;
34489;SDS011;20730;49.372;7.324;2023-04-25T14:00:37;6.40;;;2.83;;
34489;SDS011;20730;49.372;7.324;2023-04-25T14:03:05;10.05;;;3.05;;
34489;SDS011;20730;49.372;7.324;2023-04-25T14:05:35;7.05;;;2.38;;
34489;SDS011;20730;49.372;7.324;2023-04-25T14:08:05;5.47;;;2.35;;
34489;SDS011;20730;49.372;7.324;2023-04-25T14:10:33;6.70;;;1.90;;
34489;SDS011;20730;49.372;7.324;2023-04-25T14:13:00;7.53;;;2.35;;
34489;SDS011;20730;49.372;7.324;2023-04-25T14:15:27;6.03;;;2.35;;
34489;SDS011;20730;49.372;7.324;2023-04-25T14:17:54;12.80;;;2.90;;
34489;SDS011;20730;49.372;7.324;2023-04-25T14:20:21;6.25;;;2.47;;
34489;SDS011;20730;49.372;7.324;2023-04-25T14:22:50;7.07;;;2.75;;
34489;SDS011;20730;49.372;7.324;2023-04-25T14:25:16;6.18;;;2.67;;
34489;SDS011;20730;49.372;7.324;2023-04-25T14:27:43;7.53;;;2.75;;
34489;SDS011;20730;49.372;7.324;2023-04-25T14:32:40;4.03;;;2.33;;
34489;SDS011;20730;49.372;7.324;2023-04-25T14:35:06;6.28;;;2.22;;
34489;SDS011;20730;49.372;7.324;2023-04-25T14:37:33;6.90;;;1.98;;
34489;SDS011;20730;49.372;7.324;2023-04-25T14:40:00;7.20;;;2.22;;
34489;SDS011;20730;49.372;7.324;2023-04-25T14:42:27;4.18;;;1.92;;
34489;SDS011;20730;49.372;7.324;2023-04-25T14:44:54;6.47;;;2.17;;
34489;SDS011;20730;49.372;7.324;2023-04-25T14:47:21;6.05;;;2.03;;
34489;SDS011;20730;49.372;7.324;2023-04-25T14:49:48;4.18;;;2.20;;
34489;SDS011;20730;49.372;7.324;2023-04-25T14:52:20;6.00;;;2.83;;
34489;SDS011;20730;49.372;7.324;2023-04-25T14:54:47;6.40;;;2.47;;
34489;SDS011;20730;49.372;7.324;2023-04-25T14:57:14;4.25;;;2.13;;
34489;SDS011;20730;49.372;7.324;2023-04-25T14:59:41;4.40;;;2.13;;
34489;SDS011;20730;49.372;7.324;2023-04-25T15:02:08;4.63;;;1.85;;
34489;SDS011;20730;49.372;7.324;2023-04-25T15:04:35;5.70;;;2.20;;
34489;SDS011;20730;49.372;7.324;2023-04-25T15:07:02;5.13;;;2.17;;